Time;durP1;ratioP1;P1;durP2;ratioP2;P2;SDS_P1;SDS_P2;PMS_P1;PMS_P2;Temp;Humidity;BMP_temperature;BMP_pressure;BME280_temperature;BME280_humidity;BME280_pressure;Samples;Min_cycle;Max_cycle;Signal;HPM_P1;HPM_P2
2023/09/13 00:00:49;;;;;;;12.98;10.18;;;;;;;;;;5023992;28;20584;-79
2023/09/13 00:03:15;;;;;;;12.05;10.85;;;;;;;;;;5041455;28;20232;-79
2023/09/13 00:05:46;;;;;;;11.15;10.13;;;;;;;;;;5042856;28;20277;-79
2023/09/13 00:08:14;;;;;;;11.55;10.30;;;;;;;;;;5057795;28;20230;-79
2023/09/13 00:10:44;;;;;;;12.00;10.88;;;;;;;;;;5061319;28;20250;-80
2023/09/13 00:13:10;;;;;;;12.15;11.10;;;;;;;;;;5058367;28;20699;-79
2023/09/13 00:15:40;;;;;;;12.27;11.13;;;;;;;;;;5064386;28;20222;-79
2023/09/13 00:18:06;;;;;;;13.75;11.38;;;;;;;;;;5062132;28;20338;-79
2023/09/13 00:20:31;;;;;;;12.75;11.57;;;;;;;;;;5042529;28;20247;-78
2023/09/13 00:22:57;;;;;;;13.68;12.30;;;;;;;;;;5043033;28;20231;-78
2023/09/13 00:25:22;;;;;;;13.30;12.02;;;;;;;;;;5044458;28;20272;-78
2023/09/13 00:27:50;;;;;;;16.17;13.45;;;;;;;;;;5077305;28;20253;-78
2023/09/13 00:30:16;;;;;;;14.07;12.82;;;;;;;;;;5059051;28;20222;-78
2023/09/13 00:32:41;;;;;;;14.63;13.32;;;;;;;;;;5058648;28;20242;-78
2023/09/13 00:35:07;;;;;;;14.13;13.05;;;;;;;;;;5047055;28;20226;-78
2023/09/13 00:37:35;;;;;;;15.48;14.13;;;;;;;;;;5026069;28;20261;-78
2023/09/13 00:40:01;;;;;;;13.30;12.02;;;;;;;;;;5046456;28;20224;-77
2023/09/13 00:42:28;;;;;;;19.33;12.88;;;;;;;;;;5061342;28;20225;-78
2023/09/13 00:44:54;;;;;;;15.80;13.20;;;;;;;;;;5061737;28;20237;-78
2023/09/13 00:47:19;;;;;;;14.70;13.23;;;;;;;;;;5043597;28;20223;-78
2023/09/13 00:49:49;;;;;;;17.33;13.65;;;;;;;;;;5054034;28;20219;-78
2023/09/13 00:52:17;;;;;;;19.45;14.27;;;;;;;;;;5051728;28;20232;-78
2023/09/13 00:54:43;;;;;;;15.77;13.48;;;;;;;;;;5061754;28;20232;-79
2023/09/13 00:57:11;;;;;;;15.15;13.68;;;;;;;;;;5044982;28;20218;-78
2023/09/13 00:59:37;;;;;;;20.88;14.13;;;;;;;;;;5036454;28;20226;-78
2023/09/13 01:02:06;;;;;;;13.93;12.68;;;;;;;;;;5058767;28;20219;-78
2023/09/13 01:04:38;;;;;;;14.77;13.13;;;;;;;;;;5078216;28;20231;-79
2023/09/13 01:07:09;;;;;;;15.00;13.60;;;;;;;;;;5043055;28;20225;-78
2023/09/13 01:09:37;;;;;;;15.30;13.90;;;;;;;;;;5046125;28;20223;-78
2023/09/13 01:12:06;;;;;;;16.05;14.60;;;;;;;;;;5044550;28;20671;-78
2023/09/13 01:14:34;;;;;;;16.42;14.98;;;;;;;;;;5028554;28;20254;-79
2023/09/13 01:17:20;;;;;;;17.20;15.60;;;;;;;;;;5047835;28;20602;-80
2023/09/13 01:19:55;;;;;;;16.50;14.90;;;;;;;;;;5044068;28;20229;-78
2023/09/13 01:22:51;;;;;;;16.88;15.38;;;;;;;;;;5042628;28;20285;-78
2023/09/13 01:25:38;;;;;;;16.25;14.50;;;;;;;;;;5058069;28;20672;-78
2023/09/13 01:28:32;;;;;;;16.92;15.32;;;;;;;;;;5043700;28;20629;-78
2023/09/13 01:30:57;;;;;;;17.13;15.43;;;;;;;;;;5060567;28;20253;-79
2023/09/13 01:33:26;;;;;;;18.25;14.88;;;;;;;;;;5022711;28;20219;-78
2023/09/13 01:35:59;;;;;;;17.15;15.48;;;;;;;;;;5028252;28;20238;-79
2023/09/13 01:38:27;;;;;;;16.92;15.43;;;;;;;;;;5059617;28;20246;-79
2023/09/13 01:40:53;;;;;;;17.00;15.27;;;;;;;;;;5057156;28;20223;-78
2023/09/13 01:43:19;;;;;;;17.33;15.82;;;;;;;;;;5043438;28;20614;-79
2023/09/13 01:45:50;;;;;;;15.90;14.35;;;;;;;;;;5041033;28;20965;-78
2023/09/13 01:48:18;;;;;;;17.13;15.43;;;;;;;;;;5045968;28;20282;-79
2023/09/13 01:50:46;;;;;;;18.00;15.77;;;;;;;;;;5042132;28;20314;-78
2023/09/13 01:53:14;;;;;;;16.77;15.20;;;;;;;;;;5029122;28;20253;-78
2023/09/13 01:55:40;;;;;;;19.58;17.17;;;;;;;;;;5056801;28;20270;-79
2023/09/13 01:58:07;;;;;;;17.85;16.15;;;;;;;;;;5040499;28;20214;-78
2023/09/13 02:00:33;;;;;;;18.20;16.38;;;;;;;;;;5041857;28;20214;-80
2023/09/13 02:03:01;;;;;;;17.55;16.05;;;;;;;;;;5058172;28;20258;-78
2023/09/13 02:05:29;;;;;;;18.52;16.73;;;;;;;;;;5045651;28;20223;-80
2023/09/13 02:07:57;;;;;;;18.00;16.40;;;;;;;;;;5042342;28;20289;-78
2023/09/13 02:10:23;;;;;;;18.25;16.60;;;;;;;;;;5045595;28;21013;-80
2023/09/13 02:12:52;;;;;;;19.00;17.20;;;;;;;;;;5057556;28;20218;-79
2023/09/13 02:15:19;;;;;;;20.02;17.02;;;;;;;;;;5056379;28;20211;-79
2023/09/13 02:17:45;;;;;;;20.85;16.58;;;;;;;;;;5052705;28;20587;-79
2023/09/13 02:20:13;;;;;;;18.27;16.48;;;;;;;;;;5054943;28;20281;-78
2023/09/13 02:22:39;;;;;;;18.05;16.35;;;;;;;;;;5054302;28;20245;-79
2023/09/13 02:25:10;;;;;;;19.05;16.30;;;;;;;;;;5038378;28;20207;-78
2023/09/13 02:27:36;;;;;;;20.13;18.10;;;;;;;;;;5025260;28;20345;-78
2023/09/13 02:30:04;;;;;;;19.08;17.27;;;;;;;;;;5038396;28;20241;-78
2023/09/13 02:32:36;;;;;;;19.52;17.55;;;;;;;;;;5018738;28;20227;-78
2023/09/13 02:35:06;;;;;;;20.77;18.55;;;;;;;;;;5039477;28;20223;-78
2023/09/13 02:37:32;;;;;;;21.45;19.25;;;;;;;;;;5037312;28;20635;-79
2023/09/13 02:39:58;;;;;;;23.25;20.83;;;;;;;;;;5058146;28;20222;-79
2023/09/13 02:42:29;;;;;;;22.50;20.23;;;;;;;;;;5053389;28;20241;-79
2023/09/13 02:44:54;;;;;;;21.90;20.00;;;;;;;;;;5049465;28;20640;-79
2023/09/13 02:47:20;;;;;;;22.45;20.17;;;;;;;;;;5057252;28;20280;-79
2023/09/13 02:49:45;;;;;;;25.83;23.05;;;;;;;;;;5040700;28;20231;-79
2023/09/13 02:52:11;;;;;;;25.00;22.70;;;;;;;;;;5035172;28;20211;-79
2023/09/13 02:54:36;;;;;;;25.10;22.70;;;;;;;;;;5052620;28;20274;-79
2023/09/13 02:57:05;;;;;;;25.25;22.95;;;;;;;;;;5038069;28;20222;-79
2023/09/13 02:59:32;;;;;;;23.60;21.38;;;;;;;;;;5016273;28;20275;-80
2023/09/13 03:01:57;;;;;;;22.27;20.27;;;;;;;;;;5037046;28;20220;-79
2023/09/13 03:04:23;;;;;;;23.25;21.08;;;;;;;;;;5037472;28;20952;-79
2023/09/13 03:06:52;;;;;;;22.90;20.67;;;;;;;;;;5043376;28;20223;-79
2023/09/13 03:09:19;;;;;;;20.30;18.52;;;;;;;;;;5044887;28;20254;-80
2023/09/13 03:11:47;;;;;;;20.10;18.40;;;;;;;;;;5046358;28;20286;-79
2023/09/13 03:14:13;;;;;;;22.30;19.77;;;;;;;;;;5012808;28;20246;-79
2023/09/13 03:16:39;;;;;;;20.92;18.98;;;;;;;;;;5013254;28;20228;-80
2023/09/13 03:19:09;;;;;;;21.33;19.23;;;;;;;;;;5025561;28;20220;-80
2023/09/13 03:21:36;;;;;;;20.50;18.40;;;;;;;;;;5044505;28;20215;-80
2023/09/13 03:24:03;;;;;;;21.15;19.15;;;;;;;;;;5027375;28;20234;-79
2023/09/13 03:26:31;;;;;;;22.38;19.83;;;;;;;;;;5008542;28;20219;-79
2023/09/13 03:28:56;;;;;;;21.42;19.52;;;;;;;;;;5047264;28;20753;-79
2023/09/13 03:31:24;;;;;;;22.60;20.52;;;;;;;;;;5010703;28;20230;-80
2023/09/13 03:33:52;;;;;;;23.05;21.05;;;;;;;;;;5025909;28;20243;-79
2023/09/13 03:36:20;;;;;;;22.88;20.65;;;;;;;;;;5013509;28;20227;-80
2023/09/13 03:38:51;;;;;;;23.75;21.48;;;;;;;;;;5016211;28;20223;-79
2023/09/13 03:41:21;;;;;;;23.90;21.42;;;;;;;;;;5029240;28;20216;-79
2023/09/13 03:43:48;;;;;;;24.50;21.75;;;;;;;;;;5029566;28;20223;-79
2023/09/13 03:46:13;;;;;;;24.98;22.23;;;;;;;;;;5033694;28;20230;-80
2023/09/13 03:48:43;;;;;;;20.92;19.10;;;;;;;;;;5020587;28;20231;-79
2023/09/13 03:51:13;;;;;;;24.05;21.67;;;;;;;;;;5033113;28;20237;-79
2023/09/13 03:53:39;;;;;;;22.20;20.23;;;;;;;;;;5054542;28;20227;-80
2023/09/13 03:56:07;;;;;;;21.83;19.73;;;;;;;;;;5032072;28;20207;-79
2023/09/13 03:58:36;;;;;;;23.48;21.38;;;;;;;;;;5022254;28;20233;-80
2023/09/13 04:04:49;;;;;;;21.80;19.85;;;;;;;;;;5051483;28;20243;-80
2023/09/13 04:07:14;;;;;;;23.38;21.27;;;;;;;;;;5038769;28;20232;-79
2023/09/13 04:09:40;;;;;;;21.17;19.33;;;;;;;;;;5047831;28;20310;-79
2023/09/13 04:12:06;;;;;;;21.95;19.98;;;;;;;;;;5027225;28;20223;-79
2023/09/13 04:14:32;;;;;;;22.88;20.67;;;;;;;;;;5015283;28;20222;-79
2023/09/13 04:16:58;;;;;;;22.50;20.40;;;;;;;;;;5030710;28;20224;-79
2023/09/13 04:19:23;;;;;;;21.88;19.90;;;;;;;;;;5044097;28;20228;-80
2023/09/13 04:21:53;;;;;;;22.40;20.30;;;;;;;;;;5027988;28;20234;-79
2023/09/13 04:24:19;;;;;;;20.00;18.25;;;;;;;;;;5040169;28;20237;-78
2023/09/13 04:26:44;;;;;;;20.50;18.58;;;;;;;;;;5050116;28;20227;-78
2023/09/13 04:29:12;;;;;;;20.00;18.30;;;;;;;;;;5048656;28;20231;-79
2023/09/13 04:31:40;;;;;;;18.73;17.17;;;;;;;;;;5066085;28;20222;-79
2023/09/13 04:34:06;;;;;;;18.88;17.17;;;;;;;;;;5032031;28;20224;-78
2023/09/13 04:36:38;;;;;;;17.80;16.30;;;;;;;;;;5033822;28;20482;-79
2023/09/13 04:39:07;;;;;;;17.20;15.80;;;;;;;;;;5044804;28;20226;-78
2023/09/13 04:41:33;;;;;;;17.25;15.85;;;;;;;;;;5047832;28;20314;-78
2023/09/13 04:44:01;;;;;;;17.73;16.33;;;;;;;;;;5013392;28;20247;-77
2023/09/13 04:46:27;;;;;;;17.90;16.23;;;;;;;;;;5041384;28;20230;-78
2023/09/13 04:48:53;;;;;;;20.17;18.17;;;;;;;;;;5012511;28;20223;-78
2023/09/13 04:51:19;;;;;;;18.80;17.05;;;;;;;;;;5029775;28;20224;-79
2023/09/13 04:53:44;;;;;;;18.33;16.42;;;;;;;;;;5029659;28;21545;-78
2023/09/13 04:56:10;;;;;;;18.42;16.77;;;;;;;;;;5041738;28;20237;-79
2023/09/13 04:58:41;;;;;;;21.75;19.67;;;;;;;;;;5045774;28;20227;-78
2023/09/13 05:01:09;;;;;;;20.92;18.85;;;;;;;;;;5049289;28;20696;-78
2023/09/13 05:03:35;;;;;;;18.85;17.33;;;;;;;;;;5030317;28;20293;-78
2023/09/13 05:06:02;;;;;;;18.33;16.65;;;;;;;;;;5046045;28;20245;-78
2023/09/13 05:08:31;;;;;;;18.70;17.05;;;;;;;;;;5044690;28;20846;-80
2023/09/13 05:11:00;;;;;;;19.10;17.52;;;;;;;;;;5012859;28;20219;-77
2023/09/13 05:13:26;;;;;;;19.67;17.73;;;;;;;;;;5048444;28;20235;-80
2023/09/13 05:15:52;;;;;;;21.17;19.17;;;;;;;;;;5033137;28;20241;-79
2023/09/13 05:18:17;;;;;;;20.80;19.00;;;;;;;;;;5039752;28;20241;-79
2023/09/13 05:20:43;;;;;;;21.20;19.30;;;;;;;;;;5037867;28;20227;-78
2023/09/13 05:23:10;;;;;;;24.00;21.70;;;;;;;;;;5052680;28;20609;-79
2023/09/13 05:25:42;;;;;;;22.35;20.25;;;;;;;;;;5021463;28;20230;-79
2023/09/13 05:28:08;;;;;;;26.50;23.98;;;;;;;;;;5046887;28;20211;-77
2023/09/13 05:30:34;;;;;;;26.00;23.42;;;;;;;;;;5030998;28;20208;-79
2023/09/13 05:32:59;;;;;;;27.33;24.83;;;;;;;;;;5014308;28;20223;-78
2023/09/13 05:35:25;;;;;;;29.85;26.85;;;;;;;;;;5055902;28;20207;-78
2023/09/13 05:37:50;;;;;;;30.65;27.55;;;;;;;;;;5032287;28;20227;-78
2023/09/13 05:40:16;;;;;;;30.35;27.30;;;;;;;;;;5048990;28;20227;-78
2023/09/13 05:42:44;;;;;;;30.30;27.40;;;;;;;;;;5043196;28;20227;-78
2023/09/13 05:45:09;;;;;;;28.23;25.52;;;;;;;;;;5030188;28;20234;-79
2023/09/13 05:47:37;;;;;;;25.30;22.73;;;;;;;;;;5040226;28;20216;-78
2023/09/13 05:50:05;;;;;;;24.90;22.70;;;;;;;;;;5041419;28;20235;-78
2023/09/13 05:52:33;;;;;;;26.35;23.77;;;;;;;;;;5036553;28;20219;-78
2023/09/13 05:55:01;;;;;;;23.95;21.70;;;;;;;;;;5027224;28;20255;-80
2023/09/13 05:57:28;;;;;;;24.27;21.98;;;;;;;;;;5025279;28;20227;-78
2023/09/13 05:59:56;;;;;;;26.48;23.98;;;;;;;;;;5018248;28;20215;-77
2023/09/13 06:02:24;;;;;;;23.98;21.83;;;;;;;;;;5038444;28;20230;-78
2023/09/13 06:04:52;;;;;;;23.80;21.55;;;;;;;;;;5057386;28;20719;-76
2023/09/13 06:07:22;;;;;;;23.08;20.88;;;;;;;;;;5075262;28;20265;-78
2023/09/13 06:09:48;;;;;;;21.63;19.73;;;;;;;;;;5078291;28;20238;-79
2023/09/13 06:12:16;;;;;;;22.65;20.63;;;;;;;;;;5059369;28;20314;-78
2023/09/13 06:14:43;;;;;;;22.17;20.20;;;;;;;;;;5044040;28;20219;-77
2023/09/13 06:17:12;;;;;;;22.15;20.17;;;;;;;;;;5062442;28;20218;-78
2023/09/13 06:19:37;;;;;;;23.67;21.30;;;;;;;;;;5042627;28;20306;-77
2023/09/13 06:22:03;;;;;;;24.52;22.02;;;;;;;;;;5058083;28;20245;-78
2023/09/13 06:24:28;;;;;;;23.23;21.13;;;;;;;;;;5052679;28;20702;-78
2023/09/13 06:26:54;;;;;;;23.70;21.70;;;;;;;;;;5057428;28;20223;-79
2023/09/13 06:29:22;;;;;;;23.08;21.00;;;;;;;;;;5026975;28;20223;-79
2023/09/13 06:31:50;;;;;;;22.42;20.33;;;;;;;;;;5018953;28;20245;-79
2023/09/13 06:34:18;;;;;;;21.65;19.75;;;;;;;;;;5034150;28;20224;-79
2023/09/13 06:36:48;;;;;;;22.48;20.48;;;;;;;;;;5036808;28;20301;-78
2023/09/13 06:39:14;;;;;;;20.35;18.45;;;;;;;;;;5020956;28;20313;-77
2023/09/13 06:41:41;;;;;;;20.50;18.70;;;;;;;;;;5032860;28;20223;-78
2023/09/13 06:44:09;;;;;;;18.90;17.00;;;;;;;;;;5005271;28;20224;-78
2023/09/13 06:46:38;;;;;;;16.20;14.80;;;;;;;;;;5026376;28;20239;-79
2023/09/13 06:49:05;;;;;;;17.75;15.55;;;;;;;;;;5024286;28;20296;-79
2023/09/13 06:51:31;;;;;;;15.65;14.15;;;;;;;;;;5035233;28;20218;-78
2023/09/13 06:53:59;;;;;;;16.05;14.38;;;;;;;;;;5017398;28;20231;-79
2023/09/13 06:56:25;;;;;;;15.55;14.05;;;;;;;;;;5049157;28;20224;-79
2023/09/13 06:58:53;;;;;;;15.52;14.02;;;;;;;;;;5027732;28;20211;-79
2023/09/13 07:01:20;;;;;;;12.23;11.13;;;;;;;;;;5055248;28;20219;-78
2023/09/13 07:03:46;;;;;;;11.38;10.27;;;;;;;;;;5057236;28;20222;-79
2023/09/13 07:06:12;;;;;;;10.75;9.75;;;;;;;;;;5057612;28;20723;-79
2023/09/13 07:08:37;;;;;;;10.35;9.43;;;;;;;;;;5037123;28;20235;-79
2023/09/13 07:11:03;;;;;;;8.18;7.38;;;;;;;;;;5057662;28;20207;-77
2023/09/13 07:13:31;;;;;;;8.13;7.43;;;;;;;;;;5043291;28;20288;-79
2023/09/13 07:15:56;;;;;;;7.00;6.40;;;;;;;;;;5038487;28;20211;-79
2023/09/13 07:18:23;;;;;;;5.05;4.65;;;;;;;;;;5072462;28;20714;-78
2023/09/13 07:20:48;;;;;;;6.25;5.32;;;;;;;;;;5056503;28;20218;-78
2023/09/13 07:23:17;;;;;;;3.63;3.38;;;;;;;;;;5041559;28;21315;-78
2023/09/13 07:25:47;;;;;;;2.72;2.20;;;;;;;;;;5058041;28;21042;-79
2023/09/13 07:28:13;;;;;;;2.50;2.30;;;;;;;;;;5012121;28;20229;-78
2023/09/13 07:30:38;;;;;;;2.40;2.20;;;;;;;;;;5044965;28;20219;-78
2023/09/13 07:33:04;;;;;;;2.55;2.38;;;;;;;;;;5051680;28;20222;-78
2023/09/13 07:35:29;;;;;;;2.90;2.70;;;;;;;;;;5041259;28;20222;-79
2023/09/13 07:37:57;;;;;;;3.45;3.25;;;;;;;;;;5058652;28;20255;-78
2023/09/13 07:40:25;;;;;;;3.10;2.90;;;;;;;;;;5053025;28;20231;-79
2023/09/13 07:42:50;;;;;;;3.58;3.35;;;;;;;;;;5022342;28;20245;-77
2023/09/13 07:45:18;;;;;;;3.75;3.45;;;;;;;;;;5018942;28;20231;-77
2023/09/13 07:47:46;;;;;;;3.70;3.50;;;;;;;;;;5032099;28;20227;-76
2023/09/13 07:50:36;;;;;;;3.45;3.25;;;;;;;;;;5050733;28;20222;-77
2023/09/13 07:53:04;;;;;;;3.45;3.25;;;;;;;;;;5033559;28;20298;-78
2023/09/13 07:55:32;;;;;;;3.90;3.70;;;;;;;;;;5031139;28;20227;-77
2023/09/13 07:57:58;;;;;;;3.80;3.50;;;;;;;;;;5049660;28;20222;-78
2023/09/13 08:00:25;;;;;;;3.70;3.50;;;;;;;;;;5032647;28;20223;-77
2023/09/13 08:02:56;;;;;;;3.72;3.42;;;;;;;;;;5054696;28;20463;-77
2023/09/13 08:05:24;;;;;;;3.42;3.22;;;;;;;;;;5056878;28;20231;-76
2023/09/13 08:07:51;;;;;;;3.30;3.15;;;;;;;;;;5040291;28;20215;-77
2023/09/13 08:10:21;;;;;;;3.10;2.90;;;;;;;;;;5053608;28;20253;-77
2023/09/13 08:12:47;;;;;;;2.42;2.33;;;;;;;;;;5056797;28;20206;-78
2023/09/13 08:15:13;;;;;;;2.60;2.50;;;;;;;;;;5039832;28;20214;-77
2023/09/13 08:17:39;;;;;;;4.25;2.90;;;;;;;;;;5039744;28;20221;-77
2023/09/13 08:20:10;;;;;;;3.95;3.33;;;;;;;;;;5024825;28;20703;-77
2023/09/13 08:22:36;;;;;;;3.03;2.88;;;;;;;;;;5044839;28;20219;-78
2023/09/13 08:25:03;;;;;;;3.25;3.05;;;;;;;;;;5025267;28;20699;-78
2023/09/13 08:27:29;;;;;;;2.60;2.50;;;;;;;;;;5022990;28;20227;-77
2023/09/13 08:29:57;;;;;;;2.20;2.10;;;;;;;;;;5031897;28;20647;-79
2023/09/13 08:32:22;;;;;;;2.42;2.22;;;;;;;;;;5056873;28;20758;-78
2023/09/13 08:34:48;;;;;;;2.28;2.17;;;;;;;;;;5047147;28;20306;-78
2023/09/13 08:37:14;;;;;;;4.43;4.13;;;;;;;;;;5041618;28;20215;-78
2023/09/13 08:39:39;;;;;;;4.35;4.05;;;;;;;;;;5059972;28;20219;-78
2023/09/13 08:42:08;;;;;;;4.18;3.92;;;;;;;;;;5056962;28;20215;-79
2023/09/13 08:44:39;;;;;;;4.45;4.15;;;;;;;;;;5009611;28;20311;-77
2023/09/13 08:47:04;;;;;;;5.45;5.05;;;;;;;;;;5040682;28;20600;-78
2023/09/13 08:49:31;;;;;;;5.63;5.22;;;;;;;;;;5010318;28;20229;-80
2023/09/13 08:51:56;;;;;;;6.55;6.05;;;;;;;;;;5043951;28;20215;-79
2023/09/13 08:54:25;;;;;;;7.32;6.82;;;;;;;;;;5024487;28;20222;-79
2023/09/13 08:56:50;;;;;;;8.25;7.65;;;;;;;;;;5060722;28;20211;-79
2023/09/13 08:59:17;;;;;;;9.25;8.45;;;;;;;;;;5046076;28;20288;-78
2023/09/13 09:01:46;;;;;;;9.80;8.93;;;;;;;;;;5045624;28;20219;-79
2023/09/13 09:04:14;;;;;;;9.95;9.15;;;;;;;;;;5025968;28;20227;-79
2023/09/13 09:06:44;;;;;;;10.38;9.38;;;;;;;;;;5044673;28;20215;-79
2023/09/13 09:09:12;;;;;;;10.90;9.90;;;;;;;;;;5013584;28;20215;-80
2023/09/13 09:11:41;;;;;;;11.90;10.80;;;;;;;;;;5059970;28;20975;-79
2023/09/13 09:14:13;;;;;;;12.85;11.85;;;;;;;;;;5046166;28;20214;-80
2023/09/13 09:16:38;;;;;;;13.57;12.30;;;;;;;;;;5044338;28;20222;-79
2023/09/13 09:19:06;;;;;;;15.27;13.25;;;;;;;;;;5044282;28;20211;-80
2023/09/13 09:21:32;;;;;;;15.48;14.02;;;;;;;;;;5033502;28;20224;-79
2023/09/13 09:23:58;;;;;;;16.30;14.90;;;;;;;;;;5029928;28;20221;-79
2023/09/13 09:26:23;;;;;;;15.65;14.25;;;;;;;;;;5039491;28;20222;-80
2023/09/13 09:28:52;;;;;;;15.80;14.40;;;;;;;;;;5077272;28;20612;-78
2023/09/13 09:31:23;;;;;;;15.35;13.52;;;;;;;;;;5043256;28;20219;-79
2023/09/13 09:33:51;;;;;;;15.30;13.73;;;;;;;;;;5038703;28;20215;-78
2023/09/13 09:36:22;;;;;;;13.77;12.32;;;;;;;;;;5038437;28;20226;-80
2023/09/13 09:38:48;;;;;;;14.77;13.32;;;;;;;;;;5043133;28;20222;-77
2023/09/13 09:41:13;;;;;;;13.30;11.38;;;;;;;;;;5038825;28;20218;-79
2023/09/13 09:43:39;;;;;;;14.60;11.20;;;;;;;;;;5041843;28;20223;-79
2023/09/13 09:46:07;;;;;;;11.85;10.73;;;;;;;;;;5041630;28;20211;-79
2023/09/13 09:48:38;;;;;;;12.55;10.35;;;;;;;;;;5024274;28;20759;-79
2023/09/13 09:51:04;;;;;;;11.85;10.73;;;;;;;;;;5043755;28;20223;-80
2023/09/13 09:53:30;;;;;;;16.95;10.48;;;;;;;;;;5041644;28;20232;-79
2023/09/13 09:56:00;;;;;;;11.70;10.15;;;;;;;;;;5043099;28;20214;-79
2023/09/13 09:58:29;;;;;;;16.92;11.38;;;;;;;;;;5055019;28;20306;-78
2023/09/13 10:00:54;;;;;;;12.38;10.88;;;;;;;;;;5050975;28;20216;-80
2023/09/13 10:03:21;;;;;;;10.65;9.55;;;;;;;;;;5061942;28;20215;-78
2023/09/13 10:05:56;;;;;;;10.95;9.30;;;;;;;;;;5042362;28;20216;-78
2023/09/13 10:08:47;;;;;;;9.40;8.18;;;;;;;;;;5041643;28;20233;-77
2023/09/13 10:11:20;;;;;;;9.90;7.80;;;;;;;;;;5028089;28;20225;-78
2023/09/13 10:13:45;;;;;;;11.80;6.45;;;;;;;;;;5029360;28;20218;-79
2023/09/13 10:16:11;;;;;;;12.60;7.38;;;;;;;;;;5023085;28;20215;-79
2023/09/13 10:18:40;;;;;;;9.60;6.43;;;;;;;;;;5039925;28;21354;-77
2023/09/13 10:21:06;;;;;;;12.00;6.93;;;;;;;;;;5054407;28;20215;-77
2023/09/13 10:23:42;;;;;;;9.93;5.53;;;;;;;;;;5036761;28;20243;-78
2023/09/13 10:26:09;;;;;;;8.50;4.95;;;;;;;;;;5004080;28;20298;-79
2023/09/13 10:28:36;;;;;;;8.23;4.82;;;;;;;;;;5044757;28;20245;-78
2023/09/13 10:31:06;;;;;;;7.65;5.13;;;;;;;;;;5063858;28;20211;-78
2023/09/13 10:33:32;;;;;;;5.83;4.87;;;;;;;;;;5069926;28;20229;-77
2023/09/13 10:35:59;;;;;;;8.30;4.53;;;;;;;;;;5047090;28;20639;-77
2023/09/13 10:39:07;;;;;;;8.68;5.25;;;;;;;;;;5012562;28;20228;-76
2023/09/13 10:41:34;;;;;;;9.38;4.95;;;;;;;;;;5048930;28;20215;-78
2023/09/13 10:44:02;;;;;;;7.50;4.90;;;;;;;;;;5049722;28;20235;-78
2023/09/13 10:46:27;;;;;;;9.43;5.38;;;;;;;;;;5046041;28;20226;-77
2023/09/13 10:48:53;;;;;;;8.80;5.30;;;;;;;;;;5026770;28;20261;-79
2023/09/13 10:51:18;;;;;;;10.47;5.30;;;;;;;;;;5041479;28;20218;-77
2023/09/13 10:53:47;;;;;;;9.17;5.33;;;;;;;;;;5027426;28;20695;-79
2023/09/13 10:56:12;;;;;;;8.93;5.13;;;;;;;;;;5025755;28;20223;-78
2023/09/13 10:58:38;;;;;;;9.20;5.17;;;;;;;;;;5044573;28;20359;-78
2023/09/13 11:01:11;;;;;;;8.80;5.13;;;;;;;;;;5027933;28;20215;-78
2023/09/13 11:03:36;;;;;;;11.23;5.35;;;;;;;;;;5040912;28;20235;-78
2023/09/13 11:06:02;;;;;;;7.93;4.97;;;;;;;;;;5051877;28;20296;-78
2023/09/13 11:08:31;;;;;;;12.02;5.15;;;;;;;;;;5018592;28;20251;-78
2023/09/13 11:11:09;;;;;;;7.82;4.65;;;;;;;;;;5053791;28;20219;-80
2023/09/13 11:13:34;;;;;;;11.40;5.40;;;;;;;;;;5036566;28;20263;-77
2023/09/13 11:16:07;;;;;;;8.65;5.55;;;;;;;;;;5040436;28;20218;-78
2023/09/13 11:18:35;;;;;;;6.90;4.90;;;;;;;;;;5056763;28;20322;-79
2023/09/13 11:21:00;;;;;;;6.97;5.40;;;;;;;;;;5044557;28;20261;-78
2023/09/13 11:23:29;;;;;;;10.15;5.18;;;;;;;;;;5025899;28;20235;-79
2023/09/13 11:25:57;;;;;;;8.40;5.00;;;;;;;;;;5058004;28;20223;-77
2023/09/13 11:28:43;;;;;;;9.25;5.22;;;;;;;;;;5068233;28;20235;-77
2023/09/13 11:31:09;;;;;;;8.93;5.50;;;;;;;;;;5048713;28;20222;-77
2023/09/13 11:33:40;;;;;;;8.57;5.57;;;;;;;;;;5049627;28;20231;-77
2023/09/13 11:36:06;;;;;;;7.95;5.75;;;;;;;;;;5070062;28;20276;-77
2023/09/13 11:38:31;;;;;;;13.30;6.22;;;;;;;;;;5046088;28;20239;-77
2023/09/13 11:40:57;;;;;;;9.95;5.70;;;;;;;;;;5054210;28;20241;-77
2023/09/13 11:43:29;;;;;;;7.63;5.00;;;;;;;;;;5032743;28;20292;-77
2023/09/13 11:45:56;;;;;;;11.43;5.38;;;;;;;;;;5041643;28;20321;-77
2023/09/13 11:48:39;;;;;;;7.93;4.63;;;;;;;;;;5070652;28;20209;-78
2023/09/13 11:51:14;;;;;;;8.18;4.93;;;;;;;;;;5060497;28;20715;-79
2023/09/13 11:53:44;;;;;;;9.47;4.43;;;;;;;;;;5035892;28;20226;-79
2023/09/13 11:56:37;;;;;;;7.60;4.37;;;;;;;;;;5025014;28;20280;-78
2023/09/13 11:59:06;;;;;;;9.13;4.20;;;;;;;;;;5075124;28;20712;-79
2023/09/13 12:01:34;;;;;;;6.53;3.88;;;;;;;;;;5040018;28;20219;-78
2023/09/13 12:04:03;;;;;;;7.90;3.80;;;;;;;;;;5045729;28;20291;-79
2023/09/13 12:06:28;;;;;;;6.18;3.88;;;;;;;;;;5031518;28;20226;-79
2023/09/13 12:08:55;;;;;;;6.83;3.77;;;;;;;;;;5049911;28;20303;-78
2023/09/13 12:11:21;;;;;;;4.88;3.15;;;;;;;;;;5042683;28;20223;-78
2023/09/13 12:13:48;;;;;;;7.67;3.63;;;;;;;;;;5028388;28;20219;-79
2023/09/13 12:16:14;;;;;;;7.40;3.58;;;;;;;;;;5042185;28;20275;-78
2023/09/13 12:18:42;;;;;;;7.10;3.63;;;;;;;;;;5043471;28;20227;-79
2023/09/13 12:21:08;;;;;;;12.45;3.55;;;;;;;;;;5043688;28;20211;-77
2023/09/13 12:23:36;;;;;;;5.03;3.00;;;;;;;;;;5041115;28;20343;-78
2023/09/13 12:26:04;;;;;;;6.63;3.35;;;;;;;;;;5078408;28;20227;-79
2023/09/13 12:28:34;;;;;;;9.70;3.60;;;;;;;;;;5025885;28;20223;-78
2023/09/13 12:31:15;;;;;;;5.65;3.28;;;;;;;;;;5040186;28;20218;-78
2023/09/13 12:33:48;;;;;;;9.10;3.70;;;;;;;;;;5043433;28;20230;-77
2023/09/13 12:36:19;;;;;;;5.88;3.33;;;;;;;;;;5045309;28;20230;-76
2023/09/13 12:38:45;;;;;;;10.43;4.07;;;;;;;;;;5044944;28;20222;-77
2023/09/13 12:41:20;;;;;;;8.73;3.55;;;;;;;;;;5056589;28;20298;-78
2023/09/13 12:43:48;;;;;;;7.97;3.72;;;;;;;;;;5028570;28;20257;-79
2023/09/13 12:46:18;;;;;;;10.25;3.88;;;;;;;;;;5024417;28;20229;-78
2023/09/13 12:48:46;;;;;;;8.52;4.07;;;;;;;;;;5031505;28;20250;-79
2023/09/13 12:51:20;;;;;;;7.70;6.50;;;;;;;;;;5024486;28;20617;-79
2023/09/13 12:53:48;;;;;;;8.20;4.07;;;;;;;;;;5065723;28;20244;-79
2023/09/13 12:56:14;;;;;;;7.70;3.80;;;;;;;;;;5041875;28;20238;-78
2023/09/13 12:58:52;;;;;;;8.07;4.28;;;;;;;;;;5054651;28;20284;-80
2023/09/13 13:01:25;;;;;;;5.78;4.53;;;;;;;;;;5024976;28;20223;-78
2023/09/13 13:04:20;;;;;;;7.43;4.28;;;;;;;;;;5057000;28;20215;-79
2023/09/13 13:06:59;;;;;;;7.18;3.85;;;;;;;;;;5017436;28;20317;-78
2023/09/13 13:09:25;;;;;;;5.57;3.92;;;;;;;;;;5046400;28;20226;-79
2023/09/13 13:11:52;;;;;;;6.47;3.45;;;;;;;;;;5021833;28;20211;-78
2023/09/13 13:14:19;;;;;;;7.13;3.78;;;;;;;;;;5025890;28;20722;-79
2023/09/13 13:16:52;;;;;;;5.28;3.00;;;;;;;;;;5029522;28;20226;-77
2023/09/13 13:19:28;;;;;;;6.23;3.50;;;;;;;;;;5040228;28;20230;-80
2023/09/13 13:21:54;;;;;;;13.45;3.65;;;;;;;;;;5054060;28;20220;-78
2023/09/13 13:24:19;;;;;;;7.72;2.95;;;;;;;;;;5027138;28;20316;-78
2023/09/13 13:26:45;;;;;;;5.07;2.63;;;;;;;;;;5023193;28;20227;-80
2023/09/13 13:29:12;;;;;;;6.10;3.07;;;;;;;;;;5039846;28;20233;-79
2023/09/13 13:31:38;;;;;;;6.03;2.87;;;;;;;;;;5031108;28;20219;-80
2023/09/13 13:34:04;;;;;;;5.70;3.07;;;;;;;;;;5014265;28;20207;-78
2023/09/13 13:36:32;;;;;;;5.63;2.97;;;;;;;;;;5059177;28;20223;-77
2023/09/13 13:39:05;;;;;;;4.97;2.77;;;;;;;;;;5030815;28;20300;-78
2023/09/13 13:41:31;;;;;;;4.30;2.77;;;;;;;;;;5048574;28;20243;-77
2023/09/13 13:43:57;;;;;;;5.40;2.77;;;;;;;;;;5041558;28;20223;-79
2023/09/13 13:46:26;;;;;;;3.40;2.63;;;;;;;;;;5045175;28;20224;-76
2023/09/13 13:48:53;;;;;;;4.80;2.77;;;;;;;;;;5041490;28;20248;-77
2023/09/13 13:51:19;;;;;;;9.07;2.80;;;;;;;;;;5041314;28;20227;-79
2023/09/13 13:53:44;;;;;;;2.80;2.53;;;;;;;;;;5037692;28;20268;-77
2023/09/13 13:56:10;;;;;;;2.67;2.43;;;;;;;;;;5039153;28;20249;-79
2023/09/13 13:58:38;;;;;;;4.57;2.47;;;;;;;;;;5058789;28;20222;-78
2023/09/13 14:01:07;;;;;;;3.63;2.33;;;;;;;;;;5059681;28;20245;-78
2023/09/13 14:03:35;;;;;;;2.25;1.95;;;;;;;;;;5059535;28;20241;-77
2023/09/13 14:06:03;;;;;;;2.30;2.10;;;;;;;;;;5042862;28;20215;-76
2023/09/13 14:08:28;;;;;;;8.00;2.93;;;;;;;;;;5060859;28;20215;-78
2023/09/13 14:10:54;;;;;;;2.00;1.90;;;;;;;;;;5027574;28;20227;-78
2023/09/13 14:13:20;;;;;;;2.30;2.10;;;;;;;;;;5057995;28;20227;-78
2023/09/13 14:15:50;;;;;;;2.80;2.10;;;;;;;;;;5042858;28;20219;-78
2023/09/13 14:18:16;;;;;;;2.40;2.03;;;;;;;;;;5056002;28;20227;-78
2023/09/13 14:20:41;;;;;;;2.60;2.37;;;;;;;;;;5042715;28;20246;-78
2023/09/13 14:23:11;;;;;;;3.53;2.17;;;;;;;;;;5057144;28;20211;-77
2023/09/13 14:25:41;;;;;;;3.70;2.30;;;;;;;;;;5042859;28;20613;-77
2023/09/13 14:28:07;;;;;;;3.73;2.50;;;;;;;;;;5052601;28;20547;-76
2023/09/13 14:30:35;;;;;;;2.87;2.43;;;;;;;;;;5055709;28;20781;-77
2023/09/13 14:33:06;;;;;;;2.13;1.93;;;;;;;;;;5056652;28;20764;-78
2023/09/13 14:35:32;;;;;;;3.13;2.33;;;;;;;;;;5039275;28;20239;-77
2023/09/13 14:38:05;;;;;;;6.40;2.13;;;;;;;;;;5038383;28;20229;-77